createdAt,value
2023-05-19T10:06:03.119Z,270.20
2023-05-19T10:10:10.449Z,270.00
2023-05-19T10:14:16.482Z,266.30
2023-05-19T10:22:22.647Z,265.70
2023-05-19T10:26:27.819Z,267.90
2023-05-19T10:30:37.109Z,266.10
2023-05-19T10:35:05.744Z,265.00
2023-05-19T10:39:27.867Z,267.53
2023-05-19T10:43:57.083Z,267.80
2023-05-19T10:48:01.542Z,266.40
2023-05-19T10:52:05.728Z,266.10
2023-05-19T10:56:10.437Z,266.45
2023-05-19T11:00:29.302Z,264.60
2023-05-19T11:04:51.140Z,264.20
2023-05-19T11:08:56.853Z,264.90
2023-05-19T11:13:01.294Z,4.80
2023-05-19T11:17:05.583Z,11.20
2023-05-19T11:25:13.093Z,11.70
2023-05-19T11:29:16.455Z,14.40
2023-05-19T11:33:21.564Z,23.55
2023-05-19T11:37:26.453Z,17.30
2023-05-19T11:41:31.027Z,25.75
2023-05-19T11:45:34.891Z,260.90
2023-05-19T11:49:38.294Z,257.87
2023-05-19T11:53:44.849Z,257.90
2023-05-19T11:58:03.984Z,257.30
2023-05-19T12:02:18.350Z,257.20
2023-05-19T12:06:21.501Z,257.70
2023-05-19T12:10:26.307Z,256.15
2023-05-19T12:14:32.079Z,258.90
2023-05-19T12:18:38.164Z,260.55
2023-05-19T12:22:41.407Z,257.37
2023-05-19T12:26:45.758Z,257.30
2023-05-19T12:30:51.960Z,257.45
2023-05-19T12:34:56.865Z,257.60
2023-05-19T12:39:00.035Z,258.40
2023-05-19T12:43:04.629Z,260.20
2023-05-19T12:47:08.196Z,258.30
2023-05-19T12:51:11.526Z,256.50
2023-05-19T12:55:16.573Z,257.30
2023-05-19T12:59:37.302Z,256.67
2023-05-19T13:03:42.833Z,258.90
2023-05-19T13:07:55.500Z,255.00
2023-05-19T13:11:58.757Z,257.00
2023-05-19T13:16:03.161Z,255.30
2023-05-19T13:20:07.465Z,251.98
2023-05-19T13:24:10.485Z,247.05
2023-05-19T13:28:13.563Z,249.40
2023-05-19T13:32:17.953Z,246.65
2023-05-19T13:36:21.004Z,244.23
2023-05-19T13:40:24.234Z,241.50
2023-05-19T13:44:27.676Z,244.80
2023-05-19T13:48:32.040Z,243.53
2023-05-19T13:52:35.108Z,243.30
2023-05-19T13:56:38.199Z,243.70
2023-05-19T14:00:41.424Z,240.00
2023-05-19T14:04:46.432Z,237.90
2023-05-19T14:08:49.442Z,236.45
2023-05-19T14:17:01.609Z,235.15
2023-05-19T14:21:06.461Z,234.05
2023-05-19T14:25:10.113Z,230.87
2023-05-19T14:29:13.225Z,230.15
2023-05-19T14:33:16.758Z,231.60
2023-05-19T14:37:21.421Z,230.77
2023-05-19T14:41:24.439Z,230.35
2023-05-19T14:45:27.509Z,225.15
2023-05-19T14:49:30.713Z,225.80
2023-05-19T14:53:35.119Z,226.97
2023-05-19T14:57:38.160Z,224.30
2023-05-19T15:01:41.293Z,226.90
2023-05-19T15:05:45.447Z,221.80
2023-05-19T15:09:49.824Z,221.60
2023-05-19T15:13:52.836Z,224.70
2023-05-19T15:17:55.902Z,224.00
2023-05-19T15:21:58.951Z,223.30
2023-05-19T15:26:03.426Z,223.55
2023-05-19T15:30:07.600Z,220.90
2023-05-19T15:34:10.737Z,221.60
2023-05-19T15:38:13.773Z,222.93
2023-05-19T15:42:18.163Z,221.75
2023-05-19T15:46:21.217Z,223.10
2023-05-19T15:50:28.259Z,220.30
2023-05-19T15:54:31.290Z,219.65
2023-05-19T15:58:35.645Z,219.50
2023-05-19T16:02:38.789Z,216.20
2023-05-19T16:06:42.605Z,224.07
2023-05-19T16:10:45.857Z,231.65
2023-05-19T16:14:50.207Z,228.70
2023-05-19T16:18:53.243Z,231.10
2023-05-19T16:22:56.335Z,235.27
2023-05-19T16:26:59.384Z,236.45
2023-05-19T16:31:03.764Z,240.80
2023-05-19T16:35:07.985Z,241.40
2023-05-19T16:39:11.091Z,244.55
2023-05-19T16:43:14.103Z,247.20
2023-05-19T16:47:18.467Z,244.90
2023-05-19T16:51:21.689Z,244.20
2023-05-19T16:55:25.451Z,241.93
2023-05-19T16:59:28.706Z,239.20
2023-05-19T17:03:33.207Z,239.80
2023-05-19T17:07:36.257Z,239.40
2023-05-19T17:11:39.538Z,240.90
2023-05-19T17:15:43.420Z,240.80
2023-05-19T17:19:48.285Z,237.40
2023-05-19T17:23:51.422Z,236.80
2023-05-19T17:27:55.767Z,233.15
2023-05-19T17:31:58.815Z,258.20
2023-05-19T17:36:05.231Z,254.20
2023-05-19T17:40:09.519Z,253.40
2023-05-19T17:44:12.734Z,256.20
2023-05-19T17:48:16.848Z,257.00
2023-05-19T17:52:22.382Z,255.05
2023-05-19T17:56:26.633Z,257.30
2023-05-19T18:00:30.374Z,259.60
2023-05-19T18:04:34.038Z,259.50
2023-05-19T18:08:42.551Z,261.05
2023-05-19T18:12:45.583Z,261.77
2023-05-19T18:16:49.965Z,257.40
2023-05-19T18:20:54.849Z,256.57
2023-05-19T18:24:59.464Z,255.10
2023-05-19T18:29:04.993Z,257.15
2023-05-19T18:33:08.201Z,255.10
2023-05-19T18:37:11.245Z,258.20
2023-05-19T18:41:15.741Z,262.23
2023-05-19T18:45:18.956Z,260.20
2023-05-19T18:49:22.049Z,257.80
2023-05-19T18:57:29.790Z,254.10
2023-05-19T19:01:32.884Z,271.40
2023-05-19T19:05:36.434Z,254.70
2023-05-19T19:09:43.710Z,271.90
2023-05-19T19:13:51.176Z,267.00
2023-05-19T19:17:54.385Z,272.67
2023-05-19T19:21:57.646Z,257.95
2023-05-19T19:26:00.785Z,261.80
2023-05-19T19:30:05.713Z,262.45
2023-05-19T19:34:09.498Z,261.40
2023-05-19T19:38:12.580Z,259.25
2023-05-19T19:42:15.668Z,260.50
2023-05-19T19:46:20.515Z,260.10
2023-05-19T19:50:23.660Z,258.30
2023-05-19T19:54:26.753Z,258.00
2023-05-19T19:58:30.510Z,256.97
2023-05-19T20:02:35.353Z,258.90
2023-05-19T20:06:38.518Z,259.00
2023-05-19T20:10:41.506Z,256.90
2023-05-19T20:14:44.521Z,255.75
2023-05-19T20:18:48.952Z,256.50
2023-05-19T20:22:52.014Z,257.65
2023-05-19T20:26:55.005Z,257.90
2023-05-19T20:30:58.033Z,258.00
2023-05-19T20:35:02.441Z,259.05
2023-05-19T20:39:06.984Z,256.40
2023-05-19T20:43:10.030Z,254.00
2023-05-19T20:47:13.065Z,254.83
2023-05-19T20:51:17.510Z,254.00
2023-05-19T20:55:20.512Z,252.75
2023-05-19T20:59:23.701Z,253.50
2023-05-19T21:03:27.155Z,249.45
2023-05-19T21:07:31.645Z,252.50
2023-05-19T21:11:35.118Z,251.80
2023-05-19T21:15:38.111Z,251.50
2023-05-19T21:19:41.226Z,252.30
2023-05-19T21:23:46.596Z,249.40
2023-05-19T21:27:51.033Z,248.00
2023-05-19T21:31:56.214Z,249.90
2023-05-19T21:36:00.474Z,250.45
2023-05-19T21:40:05.358Z,248.85
2023-05-19T21:44:08.656Z,249.55
2023-05-19T21:48:12.174Z,252.20
2023-05-19T21:52:15.352Z,249.90
2023-05-19T21:56:19.805Z,249.07
2023-05-19T22:00:23.081Z,247.75
2023-05-19T22:04:26.780Z,249.75
2023-05-19T22:08:29.800Z,248.90
2023-05-19T22:12:34.342Z,251.70
2023-05-19T22:16:37.371Z,249.20
2023-05-19T22:20:40.425Z,246.80
2023-05-19T22:24:43.490Z,251.98
2023-05-19T22:28:47.817Z,254.00
2023-05-19T22:32:51.068Z,254.50
2023-05-19T22:36:54.060Z,251.45
2023-05-19T22:40:57.045Z,250.60
2023-05-19T22:45:01.403Z,253.20
2023-05-19T22:49:04.425Z,254.60
2023-05-19T22:53:07.456Z,254.83
2023-05-19T22:57:10.617Z,251.60
2023-05-19T23:01:15.085Z,253.30
2023-05-19T23:05:18.142Z,253.70
2023-05-19T23:09:21.930Z,256.60
2023-05-19T23:13:24.976Z,256.15
2023-05-19T23:17:29.368Z,260.70
2023-05-19T23:21:32.504Z,253.90
2023-05-19T23:25:35.831Z,258.03
2023-05-19T23:29:39.164Z,259.40
2023-05-19T23:33:43.610Z,260.70
2023-05-19T23:37:46.625Z,260.85
2023-05-19T23:41:49.629Z,259.87
2023-05-19T23:45:52.667Z,263.90
2023-05-19T23:49:57.052Z,262.55
2023-05-19T23:54:00.270Z,261.15
2023-05-19T23:58:03.274Z,263.80
